sensor_id;sensor_type;location;lat;lon;timestamp;P1;durP1;ratioP1;P2;durP2;ratioP2
4889;SDS011;2459;42.268;23.112;2022-10-18T00:01:38;27.70;;;5.67;;
4889;SDS011;2459;42.268;23.112;2022-10-18T00:04:06;12.93;;;5.73;;
4889;SDS011;2459;42.268;23.112;2022-10-18T00:06:32;13.83;;;5.80;;
4889;SDS011;2459;42.268;23.112;2022-10-18T00:08:59;7.93;;;4.83;;
4889;SDS011;2459;42.268;23.112;2022-10-18T00:11:25;9.33;;;4.70;;
4889;SDS011;2459;42.268;23.112;2022-10-18T00:13:52;9.93;;;5.60;;
4889;SDS011;2459;42.268;23.112;2022-10-18T00:16:18;11.77;;;5.50;;
4889;SDS011;2459;42.268;23.112;2022-10-18T00:18:45;10.40;;;5.63;;
4889;SDS011;2459;42.268;23.112;2022-10-18T00:21:14;21.47;;;6.37;;
4889;SDS011;2459;42.268;23.112;2022-10-18T00:23:41;19.00;;;6.10;;
4889;SDS011;2459;42.268;23.112;2022-10-18T00:26:09;17.07;;;6.80;;
4889;SDS011;2459;42.268;23.112;2022-10-18T00:28:36;15.93;;;7.10;;
4889;SDS011;2459;42.268;23.112;2022-10-18T00:31:10;12.67;;;6.13;;
4889;SDS011;2459;42.268;23.112;2022-10-18T00:33:37;15.00;;;7.00;;
4889;SDS011;2459;42.268;23.112;2022-10-18T00:36:03;7.47;;;4.50;;
4889;SDS011;2459;42.268;23.112;2022-10-18T00:38:31;16.37;;;6.87;;
4889;SDS011;2459;42.268;23.112;2022-10-18T00:40:58;11.20;;;6.10;;
4889;SDS011;2459;42.268;23.112;2022-10-18T00:43:24;24.07;;;7.43;;
4889;SDS011;2459;42.268;23.112;2022-10-18T00:45:51;12.97;;;5.30;;
4889;SDS011;2459;42.268;23.112;2022-10-18T00:48:17;10.50;;;5.90;;
4889;SDS011;2459;42.268;23.112;2022-10-18T00:50:44;12.33;;;6.47;;
4889;SDS011;2459;42.268;23.112;2022-10-18T00:53:15;17.43;;;6.10;;
4889;SDS011;2459;42.268;23.112;2022-10-18T00:55:43;15.03;;;6.40;;
4889;SDS011;2459;42.268;23.112;2022-10-18T00:58:10;24.60;;;7.53;;
4889;SDS011;2459;42.268;23.112;2022-10-18T01:00:38;14.57;;;6.53;;
4889;SDS011;2459;42.268;23.112;2022-10-18T01:03:06;14.50;;;5.97;;
4889;SDS011;2459;42.268;23.112;2022-10-18T01:05:40;13.33;;;5.87;;
4889;SDS011;2459;42.268;23.112;2022-10-18T01:11:01;21.23;;;6.80;;
4889;SDS011;2459;42.268;23.112;2022-10-18T01:13:35;12.97;;;5.90;;
4889;SDS011;2459;42.268;23.112;2022-10-18T01:16:06;24.67;;;6.10;;
4889;SDS011;2459;42.268;23.112;2022-10-18T01:18:36;9.73;;;6.00;;
4889;SDS011;2459;42.268;23.112;2022-10-18T01:21:08;18.37;;;5.47;;
4889;SDS011;2459;42.268;23.112;2022-10-18T01:23:39;11.67;;;5.87;;
4889;SDS011;2459;42.268;23.112;2022-10-18T01:26:14;12.60;;;5.03;;
4889;SDS011;2459;42.268;23.112;2022-10-18T01:28:46;15.43;;;9.07;;
4889;SDS011;2459;42.268;23.112;2022-10-18T01:31:19;9.50;;;5.90;;
4889;SDS011;2459;42.268;23.112;2022-10-18T01:33:46;12.03;;;6.07;;
4889;SDS011;2459;42.268;23.112;2022-10-18T01:36:16;12.93;;;5.90;;
4889;SDS011;2459;42.268;23.112;2022-10-18T01:38:44;23.47;;;6.77;;
4889;SDS011;2459;42.268;23.112;2022-10-18T01:41:12;14.07;;;5.90;;
4889;SDS011;2459;42.268;23.112;2022-10-18T01:43:39;11.83;;;5.53;;
4889;SDS011;2459;42.268;23.112;2022-10-18T01:46:06;9.93;;;5.20;;
4889;SDS011;2459;42.268;23.112;2022-10-18T01:48:34;17.67;;;8.97;;
4889;SDS011;2459;42.268;23.112;2022-10-18T01:51:02;11.87;;;7.50;;
4889;SDS011;2459;42.268;23.112;2022-10-18T01:53:29;18.73;;;6.00;;
4889;SDS011;2459;42.268;23.112;2022-10-18T01:56:19;11.90;;;5.83;;
4889;SDS011;2459;42.268;23.112;2022-10-18T02:01:36;12.13;;;5.90;;
4889;SDS011;2459;42.268;23.112;2022-10-18T02:04:07;13.50;;;6.80;;
4889;SDS011;2459;42.268;23.112;2022-10-18T02:06:38;8.93;;;5.70;;
4889;SDS011;2459;42.268;23.112;2022-10-18T02:09:08;17.40;;;6.87;;
4889;SDS011;2459;42.268;23.112;2022-10-18T02:11:37;15.00;;;7.40;;
4889;SDS011;2459;42.268;23.112;2022-10-18T02:14:06;7.70;;;5.90;;
4889;SDS011;2459;42.268;23.112;2022-10-18T02:16:34;11.80;;;6.87;;
4889;SDS011;2459;42.268;23.112;2022-10-18T02:19:04;10.80;;;6.57;;
4889;SDS011;2459;42.268;23.112;2022-10-18T02:21:33;12.77;;;6.90;;
4889;SDS011;2459;42.268;23.112;2022-10-18T02:24:01;8.83;;;6.20;;
4889;SDS011;2459;42.268;23.112;2022-10-18T02:26:27;10.60;;;5.97;;
4889;SDS011;2459;42.268;23.112;2022-10-18T02:28:54;11.90;;;6.47;;
4889;SDS011;2459;42.268;23.112;2022-10-18T02:31:23;12.40;;;7.03;;
4889;SDS011;2459;42.268;23.112;2022-10-18T02:33:52;15.43;;;5.63;;
4889;SDS011;2459;42.268;23.112;2022-10-18T02:36:21;24.30;;;7.37;;
4889;SDS011;2459;42.268;23.112;2022-10-18T02:38:51;10.03;;;6.20;;
4889;SDS011;2459;42.268;23.112;2022-10-18T02:41:23;6.27;;;4.73;;
4889;SDS011;2459;42.268;23.112;2022-10-18T02:43:49;13.73;;;6.30;;
4889;SDS011;2459;42.268;23.112;2022-10-18T02:46:16;19.57;;;8.10;;
4889;SDS011;2459;42.268;23.112;2022-10-18T02:48:42;23.70;;;9.13;;
4889;SDS011;2459;42.268;23.112;2022-10-18T02:51:09;113.90;;;32.80;;
4889;SDS011;2459;42.268;23.112;2022-10-18T02:53:35;25.30;;;9.73;;
4889;SDS011;2459;42.268;23.112;2022-10-18T02:56:03;14.97;;;6.90;;
4889;SDS011;2459;42.268;23.112;2022-10-18T02:58:30;97.73;;;26.57;;
4889;SDS011;2459;42.268;23.112;2022-10-18T03:00:56;32.90;;;13.47;;
4889;SDS011;2459;42.268;23.112;2022-10-18T03:03:23;48.23;;;14.47;;
4889;SDS011;2459;42.268;23.112;2022-10-18T03:05:49;42.47;;;16.93;;
4889;SDS011;2459;42.268;23.112;2022-10-18T03:08:16;71.63;;;22.03;;
4889;SDS011;2459;42.268;23.112;2022-10-18T03:10:43;19.60;;;8.90;;
4889;SDS011;2459;42.268;23.112;2022-10-18T03:13:11;15.70;;;8.50;;
4889;SDS011;2459;42.268;23.112;2022-10-18T03:15:37;19.00;;;7.20;;
4889;SDS011;2459;42.268;23.112;2022-10-18T03:18:04;22.80;;;10.23;;
4889;SDS011;2459;42.268;23.112;2022-10-18T03:20:31;29.40;;;12.30;;
4889;SDS011;2459;42.268;23.112;2022-10-18T03:22:58;24.37;;;10.30;;
4889;SDS011;2459;42.268;23.112;2022-10-18T03:25:24;25.80;;;8.50;;
4889;SDS011;2459;42.268;23.112;2022-10-18T03:27:51;12.33;;;6.10;;
4889;SDS011;2459;42.268;23.112;2022-10-18T03:30:19;15.13;;;6.73;;
4889;SDS011;2459;42.268;23.112;2022-10-18T03:32:45;13.93;;;6.17;;
4889;SDS011;2459;42.268;23.112;2022-10-18T03:35:12;11.83;;;6.53;;
4889;SDS011;2459;42.268;23.112;2022-10-18T03:37:38;15.20;;;7.60;;
4889;SDS011;2459;42.268;23.112;2022-10-18T03:40:05;17.03;;;6.30;;
4889;SDS011;2459;42.268;23.112;2022-10-18T03:42:32;19.83;;;7.70;;
4889;SDS011;2459;42.268;23.112;2022-10-18T03:44:58;48.73;;;17.37;;
4889;SDS011;2459;42.268;23.112;2022-10-18T03:47:26;26.57;;;12.43;;
4889;SDS011;2459;42.268;23.112;2022-10-18T03:49:53;18.33;;;7.33;;
4889;SDS011;2459;42.268;23.112;2022-10-18T03:52:19;19.13;;;8.47;;
4889;SDS011;2459;42.268;23.112;2022-10-18T03:54:46;16.30;;;6.80;;
4889;SDS011;2459;42.268;23.112;2022-10-18T03:57:12;16.20;;;7.53;;
4889;SDS011;2459;42.268;23.112;2022-10-18T03:59:38;24.30;;;8.90;;
4889;SDS011;2459;42.268;23.112;2022-10-18T04:02:05;20.50;;;8.87;;
4889;SDS011;2459;42.268;23.112;2022-10-18T04:04:33;25.43;;;9.40;;
4889;SDS011;2459;42.268;23.112;2022-10-18T04:06:59;19.77;;;9.67;;
4889;SDS011;2459;42.268;23.112;2022-10-18T04:09:26;24.20;;;10.17;;
4889;SDS011;2459;42.268;23.112;2022-10-18T04:11:52;14.53;;;7.23;;
4889;SDS011;2459;42.268;23.112;2022-10-18T04:14:19;15.87;;;10.67;;
4889;SDS011;2459;42.268;23.112;2022-10-18T04:16:46;17.97;;;9.17;;
4889;SDS011;2459;42.268;23.112;2022-10-18T04:19:12;26.30;;;9.97;;
4889;SDS011;2459;42.268;23.112;2022-10-18T04:21:40;24.23;;;8.17;;
4889;SDS011;2459;42.268;23.112;2022-10-18T04:24:07;26.27;;;8.83;;
4889;SDS011;2459;42.268;23.112;2022-10-18T04:26:33;28.20;;;9.67;;
4889;SDS011;2459;42.268;23.112;2022-10-18T04:29:00;13.17;;;8.00;;
4889;SDS011;2459;42.268;23.112;2022-10-18T04:31:26;29.93;;;8.50;;
4889;SDS011;2459;42.268;23.112;2022-10-18T04:33:53;18.60;;;8.97;;
4889;SDS011;2459;42.268;23.112;2022-10-18T04:36:19;22.20;;;10.10;;
4889;SDS011;2459;42.268;23.112;2022-10-18T04:38:47;18.07;;;8.17;;
4889;SDS011;2459;42.268;23.112;2022-10-18T04:41:14;15.80;;;9.40;;
4889;SDS011;2459;42.268;23.112;2022-10-18T04:43:40;19.10;;;9.80;;
4889;SDS011;2459;42.268;23.112;2022-10-18T04:46:07;26.43;;;9.80;;
4889;SDS011;2459;42.268;23.112;2022-10-18T04:48:33;24.27;;;9.67;;
4889;SDS011;2459;42.268;23.112;2022-10-18T04:51:00;16.27;;;9.33;;
4889;SDS011;2459;42.268;23.112;2022-10-18T04:53:26;16.10;;;7.90;;
4889;SDS011;2459;42.268;23.112;2022-10-18T04:55:54;35.13;;;7.90;;
4889;SDS011;2459;42.268;23.112;2022-10-18T04:58:21;31.40;;;9.77;;
4889;SDS011;2459;42.268;23.112;2022-10-18T05:00:48;24.67;;;10.80;;
4889;SDS011;2459;42.268;23.112;2022-10-18T05:03:14;21.00;;;10.23;;
4889;SDS011;2459;42.268;23.112;2022-10-18T05:05:41;21.23;;;11.20;;
4889;SDS011;2459;42.268;23.112;2022-10-18T05:08:10;33.13;;;10.53;;
4889;SDS011;2459;42.268;23.112;2022-10-18T05:10:36;22.53;;;11.00;;
4889;SDS011;2459;42.268;23.112;2022-10-18T05:13:04;24.40;;;11.13;;
4889;SDS011;2459;42.268;23.112;2022-10-18T05:15:31;22.97;;;9.70;;
4889;SDS011;2459;42.268;23.112;2022-10-18T05:17:57;21.20;;;11.90;;
4889;SDS011;2459;42.268;23.112;2022-10-18T05:20:23;17.07;;;9.20;;
4889;SDS011;2459;42.268;23.112;2022-10-18T05:22:50;25.10;;;9.80;;
4889;SDS011;2459;42.268;23.112;2022-10-18T05:25:16;31.33;;;15.97;;
4889;SDS011;2459;42.268;23.112;2022-10-18T05:27:43;18.33;;;9.80;;
4889;SDS011;2459;42.268;23.112;2022-10-18T05:30:11;22.63;;;8.67;;
4889;SDS011;2459;42.268;23.112;2022-10-18T05:32:37;23.63;;;10.47;;
4889;SDS011;2459;42.268;23.112;2022-10-18T05:35:04;28.60;;;12.83;;
4889;SDS011;2459;42.268;23.112;2022-10-18T05:37:31;31.20;;;13.37;;
4889;SDS011;2459;42.268;23.112;2022-10-18T05:39:57;28.53;;;12.57;;
4889;SDS011;2459;42.268;23.112;2022-10-18T05:42:24;36.53;;;11.80;;
4889;SDS011;2459;42.268;23.112;2022-10-18T05:44:50;33.37;;;8.77;;
4889;SDS011;2459;42.268;23.112;2022-10-18T05:47:18;18.77;;;9.87;;
4889;SDS011;2459;42.268;23.112;2022-10-18T05:49:44;32.27;;;10.20;;
4889;SDS011;2459;42.268;23.112;2022-10-18T05:52:11;16.83;;;8.40;;
4889;SDS011;2459;42.268;23.112;2022-10-18T05:54:38;35.00;;;11.80;;
4889;SDS011;2459;42.268;23.112;2022-10-18T05:57:04;23.00;;;10.80;;
4889;SDS011;2459;42.268;23.112;2022-10-18T05:59:31;26.43;;;10.73;;
4889;SDS011;2459;42.268;23.112;2022-10-18T06:01:57;33.70;;;12.63;;
4889;SDS011;2459;42.268;23.112;2022-10-18T06:04:25;31.53;;;9.70;;
4889;SDS011;2459;42.268;23.112;2022-10-18T06:06:52;23.17;;;9.83;;
4889;SDS011;2459;42.268;23.112;2022-10-18T06:09:20;43.63;;;11.87;;
4889;SDS011;2459;42.268;23.112;2022-10-18T06:11:46;31.00;;;11.70;;
4889;SDS011;2459;42.268;23.112;2022-10-18T06:14:13;41.73;;;10.83;;
4889;SDS011;2459;42.268;23.112;2022-10-18T06:16:39;38.77;;;9.50;;
4889;SDS011;2459;42.268;23.112;2022-10-18T06:19:06;32.40;;;13.60;;
4889;SDS011;2459;42.268;23.112;2022-10-18T06:21:34;42.27;;;10.20;;
4889;SDS011;2459;42.268;23.112;2022-10-18T06:24:01;41.33;;;11.20;;
4889;SDS011;2459;42.268;23.112;2022-10-18T06:26:27;18.53;;;9.00;;
4889;SDS011;2459;42.268;23.112;2022-10-18T06:28:54;39.07;;;10.77;;
4889;SDS011;2459;42.268;23.112;2022-10-18T06:31:20;32.10;;;11.77;;
4889;SDS011;2459;42.268;23.112;2022-10-18T06:33:47;18.90;;;10.17;;
4889;SDS011;2459;42.268;23.112;2022-10-18T06:36:14;27.63;;;10.77;;
4889;SDS011;2459;42.268;23.112;2022-10-18T06:38:42;21.00;;;9.40;;
4889;SDS011;2459;42.268;23.112;2022-10-18T06:41:09;28.10;;;9.23;;
4889;SDS011;2459;42.268;23.112;2022-10-18T06:43:35;35.03;;;9.30;;
4889;SDS011;2459;42.268;23.112;2022-10-18T06:46:03;26.60;;;9.30;;
4889;SDS011;2459;42.268;23.112;2022-10-18T06:48:31;25.83;;;9.80;;
4889;SDS011;2459;42.268;23.112;2022-10-18T06:50:58;30.37;;;8.90;;
4889;SDS011;2459;42.268;23.112;2022-10-18T06:53:25;18.23;;;8.70;;
4889;SDS011;2459;42.268;23.112;2022-10-18T06:55:57;21.70;;;8.40;;
4889;SDS011;2459;42.268;23.112;2022-10-18T06:58:24;25.27;;;8.37;;
4889;SDS011;2459;42.268;23.112;2022-10-18T07:00:50;23.43;;;9.53;;
4889;SDS011;2459;42.268;23.112;2022-10-18T07:03:17;14.10;;;8.50;;
4889;SDS011;2459;42.268;23.112;2022-10-18T07:05:44;27.80;;;12.83;;
4889;SDS011;2459;42.268;23.112;2022-10-18T07:08:11;19.50;;;8.73;;
4889;SDS011;2459;42.268;23.112;2022-10-18T07:10:37;18.20;;;9.50;;
4889;SDS011;2459;42.268;23.112;2022-10-18T07:13:05;27.37;;;8.97;;
4889;SDS011;2459;42.268;23.112;2022-10-18T07:15:32;13.50;;;7.97;;
4889;SDS011;2459;42.268;23.112;2022-10-18T07:18:02;26.70;;;8.90;;
4889;SDS011;2459;42.268;23.112;2022-10-18T07:20:28;21.43;;;7.60;;
4889;SDS011;2459;42.268;23.112;2022-10-18T07:22:55;18.47;;;7.70;;
4889;SDS011;2459;42.268;23.112;2022-10-18T07:25:22;18.40;;;7.70;;
4889;SDS011;2459;42.268;23.112;2022-10-18T07:27:48;14.00;;;8.20;;
4889;SDS011;2459;42.268;23.112;2022-10-18T07:30:16;18.60;;;7.93;;
4889;SDS011;2459;42.268;23.112;2022-10-18T07:32:43;16.97;;;8.60;;
4889;SDS011;2459;42.268;23.112;2022-10-18T07:35:09;17.20;;;10.30;;
4889;SDS011;2459;42.268;23.112;2022-10-18T07:37:36;17.00;;;7.70;;
4889;SDS011;2459;42.268;23.112;2022-10-18T07:40:02;11.07;;;7.40;;
4889;SDS011;2459;42.268;23.112;2022-10-18T07:42:29;17.93;;;8.37;;
4889;SDS011;2459;42.268;23.112;2022-10-18T07:44:56;25.70;;;7.80;;
4889;SDS011;2459;42.268;23.112;2022-10-18T07:47:24;23.70;;;8.27;;
4889;SDS011;2459;42.268;23.112;2022-10-18T07:49:50;15.53;;;6.53;;
4889;SDS011;2459;42.268;23.112;2022-10-18T07:52:17;14.10;;;7.20;;
4889;SDS011;2459;42.268;23.112;2022-10-18T07:54:43;18.33;;;8.00;;
4889;SDS011;2459;42.268;23.112;2022-10-18T07:57:10;20.30;;;7.90;;
4889;SDS011;2459;42.268;23.112;2022-10-18T07:59:36;27.63;;;7.87;;
4889;SDS011;2459;42.268;23.112;2022-10-18T08:02:03;21.50;;;7.87;;
4889;SDS011;2459;42.268;23.112;2022-10-18T08:04:31;13.90;;;6.23;;
4889;SDS011;2459;42.268;23.112;2022-10-18T08:06:58;12.83;;;5.97;;
4889;SDS011;2459;42.268;23.112;2022-10-18T08:09:24;17.67;;;8.17;;
4889;SDS011;2459;42.268;23.112;2022-10-18T08:11:51;21.53;;;6.83;;
4889;SDS011;2459;42.268;23.112;2022-10-18T08:14:17;18.57;;;7.63;;
4889;SDS011;2459;42.268;23.112;2022-10-18T08:16:44;12.97;;;6.53;;
4889;SDS011;2459;42.268;23.112;2022-10-18T08:19:10;23.40;;;6.37;;
4889;SDS011;2459;42.268;23.112;2022-10-18T08:21:38;15.47;;;5.47;;
4889;SDS011;2459;42.268;23.112;2022-10-18T08:24:05;12.23;;;5.43;;
4889;SDS011;2459;42.268;23.112;2022-10-18T08:26:31;16.33;;;5.60;;
4889;SDS011;2459;42.268;23.112;2022-10-18T08:28:58;20.90;;;5.37;;
4889;SDS011;2459;42.268;23.112;2022-10-18T08:31:25;10.03;;;5.20;;
4889;SDS011;2459;42.268;23.112;2022-10-18T08:33:53;15.67;;;6.00;;
4889;SDS011;2459;42.268;23.112;2022-10-18T08:36:19;17.77;;;5.00;;
4889;SDS011;2459;42.268;23.112;2022-10-18T08:38:47;12.67;;;5.57;;
4889;SDS011;2459;42.268;23.112;2022-10-18T08:41:21;14.77;;;6.70;;
4889;SDS011;2459;42.268;23.112;2022-10-18T08:43:51;10.93;;;4.90;;
4889;SDS011;2459;42.268;23.112;2022-10-18T08:46:21;12.20;;;4.90;;
4889;SDS011;2459;42.268;23.112;2022-10-18T08:48:47;12.50;;;6.07;;
4889;SDS011;2459;42.268;23.112;2022-10-18T08:51:18;10.13;;;4.30;;
4889;SDS011;2459;42.268;23.112;2022-10-18T08:53:50;9.95;;;4.25;;
4889;SDS011;2459;42.268;23.112;2022-10-18T08:56:19;6.50;;;3.60;;
4889;SDS011;2459;42.268;23.112;2022-10-18T08:58:48;10.18;;;5.20;;
4889;SDS011;2459;42.268;23.112;2022-10-18T09:01:18;6.75;;;3.88;;
4889;SDS011;2459;42.268;23.112;2022-10-18T09:03:55;8.90;;;4.00;;
4889;SDS011;2459;42.268;23.112;2022-10-18T09:06:24;6.32;;;4.25;;
4889;SDS011;2459;42.268;23.112;2022-10-18T09:09:00;13.87;;;4.43;;
4889;SDS011;2459;42.268;23.112;2022-10-18T09:11:32;8.70;;;3.83;;
4889;SDS011;2459;42.268;23.112;2022-10-18T09:17:02;9.90;;;4.77;;
4889;SDS011;2459;42.268;23.112;2022-10-18T09:19:39;5.80;;;4.40;;
4889;SDS011;2459;42.268;23.112;2022-10-18T09:28:12;10.70;;;4.63;;
4889;SDS011;2459;42.268;23.112;2022-10-18T09:30:42;13.10;;;4.10;;
4889;SDS011;2459;42.268;23.112;2022-10-18T09:33:14;13.63;;;5.10;;
4889;SDS011;2459;42.268;23.112;2022-10-18T09:35:46;8.83;;;3.63;;
4889;SDS011;2459;42.268;23.112;2022-10-18T09:38:15;13.10;;;4.10;;
4889;SDS011;2459;42.268;23.112;2022-10-18T09:40:45;5.57;;;3.60;;
4889;SDS011;2459;42.268;23.112;2022-10-18T09:43:16;9.20;;;3.97;;
4889;SDS011;2459;42.268;23.112;2022-10-18T09:45:44;15.60;;;4.20;;
4889;SDS011;2459;42.268;23.112;2022-10-18T09:48:12;9.40;;;4.40;;
4889;SDS011;2459;42.268;23.112;2022-10-18T09:50:40;8.83;;;4.80;;
4889;SDS011;2459;42.268;23.112;2022-10-18T09:53:11;9.17;;;4.00;;
4889;SDS011;2459;42.268;23.112;2022-10-18T09:55:41;5.80;;;3.80;;
4889;SDS011;2459;42.268;23.112;2022-10-18T09:58:15;4.57;;;3.30;;
4889;SDS011;2459;42.268;23.112;2022-10-18T10:00:43;5.97;;;4.00;;
4889;SDS011;2459;42.268;23.112;2022-10-18T10:03:12;3.63;;;3.10;;
4889;SDS011;2459;42.268;23.112;2022-10-18T10:05:39;6.90;;;3.00;;
4889;SDS011;2459;42.268;23.112;2022-10-18T10:08:06;9.03;;;3.70;;
4889;SDS011;2459;42.268;23.112;2022-10-18T10:10:33;4.17;;;3.37;;
4889;SDS011;2459;42.268;23.112;2022-10-18T10:13:02;4.77;;;2.60;;
4889;SDS011;2459;42.268;23.112;2022-10-18T10:15:30;8.80;;;4.50;;
4889;SDS011;2459;42.268;23.112;2022-10-18T10:17:59;11.48;;;5.55;;
4889;SDS011;2459;42.268;23.112;2022-10-18T10:20:28;9.57;;;4.07;;
4889;SDS011;2459;42.268;23.112;2022-10-18T10:23:03;6.75;;;3.67;;
4889;SDS011;2459;42.268;23.112;2022-10-18T10:25:30;7.30;;;4.05;;
4889;SDS011;2459;42.268;23.112;2022-10-18T10:28:00;6.50;;;3.60;;
4889;SDS011;2459;42.268;23.112;2022-10-18T10:30:29;9.23;;;4.53;;
4889;SDS011;2459;42.268;23.112;2022-10-18T10:33:00;5.53;;;2.80;;
4889;SDS011;2459;42.268;23.112;2022-10-18T10:35:30;11.23;;;3.22;;
4889;SDS011;2459;42.268;23.112;2022-10-18T10:37:57;4.65;;;3.20;;
4889;SDS011;2459;42.268;23.112;2022-10-18T10:40:23;2.55;;;2.22;;
4889;SDS011;2459;42.268;23.112;2022-10-18T10:45:35;2.80;;;2.60;;
4889;SDS011;2459;42.268;23.112;2022-10-18T10:48:10;4.35;;;2.70;;
4889;SDS011;2459;42.268;23.112;2022-10-18T10:53:29;6.57;;;2.25;;
4889;SDS011;2459;42.268;23.112;2022-10-18T10:55:57;9.20;;;2.70;;
4889;SDS011;2459;42.268;23.112;2022-10-18T10:58:24;3.63;;;2.47;;
4889;SDS011;2459;42.268;23.112;2022-10-18T11:00:51;4.70;;;3.13;;
4889;SDS011;2459;42.268;23.112;2022-10-18T11:03:20;6.30;;;3.08;;
4889;SDS011;2459;42.268;23.112;2022-10-18T11:05:48;3.83;;;3.08;;
4889;SDS011;2459;42.268;23.112;2022-10-18T11:08:17;1.90;;;1.80;;
4889;SDS011;2459;42.268;23.112;2022-10-18T11:10:53;2.35;;;1.85;;
4889;SDS011;2459;42.268;23.112;2022-10-18T11:13:22;2.67;;;2.47;;
4889;SDS011;2459;42.268;23.112;2022-10-18T11:15:53;2.78;;;2.30;;
4889;SDS011;2459;42.268;23.112;2022-10-18T11:18:26;2.72;;;1.85;;
4889;SDS011;2459;42.268;23.112;2022-10-18T11:20:55;2.90;;;2.22;;
4889;SDS011;2459;42.268;23.112;2022-10-18T11:23:24;2.53;;;2.03;;
4889;SDS011;2459;42.268;23.112;2022-10-18T11:25:58;6.88;;;2.40;;
4889;SDS011;2459;42.268;23.112;2022-10-18T11:28:32;9.25;;;1.80;;
4889;SDS011;2459;42.268;23.112;2022-10-18T11:31:04;3.58;;;1.40;;
4889;SDS011;2459;42.268;23.112;2022-10-18T11:33:38;3.20;;;1.90;;
4889;SDS011;2459;42.268;23.112;2022-10-18T11:36:08;3.47;;;2.15;;
4889;SDS011;2459;42.268;23.112;2022-10-18T11:38:37;2.25;;;1.80;;
4889;SDS011;2459;42.268;23.112;2022-10-18T11:41:08;2.45;;;1.65;;
4889;SDS011;2459;42.268;23.112;2022-10-18T11:43:39;2.58;;;1.98;;
4889;SDS011;2459;42.268;23.112;2022-10-18T11:46:10;4.20;;;2.03;;
4889;SDS011;2459;42.268;23.112;2022-10-18T11:48:43;4.50;;;2.25;;
4889;SDS011;2459;42.268;23.112;2022-10-18T11:51:13;2.28;;;1.70;;
4889;SDS011;2459;42.268;23.112;2022-10-18T11:53:48;1.60;;;1.50;;
4889;SDS011;2459;42.268;23.112;2022-10-18T11:56:21;2.10;;;1.25;;
4889;SDS011;2459;42.268;23.112;2022-10-18T12:01:55;1.80;;;1.70;;
4889;SDS011;2459;42.268;23.112;2022-10-18T12:04:29;1.30;;;1.20;;
4889;SDS011;2459;42.268;23.112;2022-10-18T12:06:58;6.60;;;2.00;;
4889;SDS011;2459;42.268;23.112;2022-10-18T12:09:26;1.00;;;1.00;;
4889;SDS011;2459;42.268;23.112;2022-10-18T12:11:54;2.83;;;1.60;;
4889;SDS011;2459;42.268;23.112;2022-10-18T12:14:24;1.30;;;1.15;;
4889;SDS011;2459;42.268;23.112;2022-10-18T12:16:51;1.77;;;1.58;;
4889;SDS011;2459;42.268;23.112;2022-10-18T12:19:21;2.97;;;1.90;;
4889;SDS011;2459;42.268;23.112;2022-10-18T12:21:50;1.70;;;1.60;;
4889;SDS011;2459;42.268;23.112;2022-10-18T12:24:18;1.65;;;1.30;;
4889;SDS011;2459;42.268;23.112;2022-10-18T12:26:56;1.00;;;1.00;;
4889;SDS011;2459;42.268;23.112;2022-10-18T12:29:24;1.50;;;0.90;;
4889;SDS011;2459;42.268;23.112;2022-10-18T12:31:53;1.77;;;1.50;;
4889;SDS011;2459;42.268;23.112;2022-10-18T12:34:29;2.83;;;1.77;;
4889;SDS011;2459;42.268;23.112;2022-10-18T12:39:43;1.55;;;1.45;;
4889;SDS011;2459;42.268;23.112;2022-10-18T12:42:16;1.10;;;1.00;;
4889;SDS011;2459;42.268;23.112;2022-10-18T12:44:43;1.30;;;1.20;;
4889;SDS011;2459;42.268;23.112;2022-10-18T12:47:17;1.77;;;0.95;;
4889;SDS011;2459;42.268;23.112;2022-10-18T12:49:44;4.43;;;1.67;;
4889;SDS011;2459;42.268;23.112;2022-10-18T12:52:20;2.97;;;1.92;;
4889;SDS011;2459;42.268;23.112;2022-10-18T12:54:59;2.45;;;1.80;;
4889;SDS011;2459;42.268;23.112;2022-10-18T12:57:27;3.15;;;1.60;;
4889;SDS011;2459;42.268;23.112;2022-10-18T13:03:35;6.72;;;2.05;;
4889;SDS011;2459;42.268;23.112;2022-10-18T13:06:03;4.43;;;4.03;;
4889;SDS011;2459;42.268;23.112;2022-10-18T13:08:37;1.95;;;1.33;;
4889;SDS011;2459;42.268;23.112;2022-10-18T13:13:55;1.30;;;1.02;;
4889;SDS011;2459;42.268;23.112;2022-10-18T13:16:33;1.48;;;1.30;;
4889;SDS011;2459;42.268;23.112;2022-10-18T13:19:09;2.15;;;1.05;;
4889;SDS011;2459;42.268;23.112;2022-10-18T13:21:40;1.33;;;1.15;;
4889;SDS011;2459;42.268;23.112;2022-10-18T13:24:13;2.17;;;1.42;;
4889;SDS011;2459;42.268;23.112;2022-10-18T13:26:43;3.38;;;1.50;;
4889;SDS011;2459;42.268;23.112;2022-10-18T13:29:21;1.60;;;1.33;;
4889;SDS011;2459;42.268;23.112;2022-10-18T13:31:52;8.05;;;1.50;;
4889;SDS011;2459;42.268;23.112;2022-10-18T13:34:23;6.95;;;2.00;;
4889;SDS011;2459;42.268;23.112;2022-10-18T13:36:56;2.33;;;1.98;;
4889;SDS011;2459;42.268;23.112;2022-10-18T13:39:23;2.50;;;2.30;;
4889;SDS011;2459;42.268;23.112;2022-10-18T13:44:36;1.88;;;1.73;;
4889;SDS011;2459;42.268;23.112;2022-10-18T13:47:09;8.23;;;1.80;;
4889;SDS011;2459;42.268;23.112;2022-10-18T13:49:38;7.70;;;5.40;;
4889;SDS011;2459;42.268;23.112;2022-10-18T13:52:10;3.90;;;2.67;;
4889;SDS011;2459;42.268;23.112;2022-10-18T13:54:47;4.90;;;2.70;;
4889;SDS011;2459;42.268;23.112;2022-10-18T13:57:23;6.50;;;2.80;;
4889;SDS011;2459;42.268;23.112;2022-10-18T14:08:54;4.90;;;3.73;;
4889;SDS011;2459;42.268;23.112;2022-10-18T14:11:25;6.53;;;2.63;;
4889;SDS011;2459;42.268;23.112;2022-10-18T14:13:53;7.13;;;3.20;;
4889;SDS011;2459;42.268;23.112;2022-10-18T14:16:26;7.57;;;5.00;;
4889;SDS011;2459;42.268;23.112;2022-10-18T14:18:55;7.53;;;3.10;;
4889;SDS011;2459;42.268;23.112;2022-10-18T14:21:26;8.67;;;4.10;;
4889;SDS011;2459;42.268;23.112;2022-10-18T14:23:56;9.83;;;4.90;;
4889;SDS011;2459;42.268;23.112;2022-10-18T14:26:23;13.00;;;3.70;;
4889;SDS011;2459;42.268;23.112;2022-10-18T14:29:01;10.63;;;3.40;;
4889;SDS011;2459;42.268;23.112;2022-10-18T14:31:27;7.60;;;3.57;;
4889;SDS011;2459;42.268;23.112;2022-10-18T14:33:56;10.53;;;3.70;;
4889;SDS011;2459;42.268;23.112;2022-10-18T14:36:23;3.60;;;2.90;;
4889;SDS011;2459;42.268;23.112;2022-10-18T14:38:51;7.97;;;3.97;;
4889;SDS011;2459;42.268;23.112;2022-10-18T14:41:21;8.77;;;4.90;;
4889;SDS011;2459;42.268;23.112;2022-10-18T14:43:48;5.23;;;3.60;;
4889;SDS011;2459;42.268;23.112;2022-10-18T14:46:16;6.33;;;4.43;;
4889;SDS011;2459;42.268;23.112;2022-10-18T14:48:50;10.03;;;6.90;;
4889;SDS011;2459;42.268;23.112;2022-10-18T14:51:17;17.90;;;7.43;;
4889;SDS011;2459;42.268;23.112;2022-10-18T14:53:44;6.30;;;5.37;;
4889;SDS011;2459;42.268;23.112;2022-10-18T14:56:19;39.00;;;23.93;;
4889;SDS011;2459;42.268;23.112;2022-10-18T14:58:48;17.33;;;7.33;;
4889;SDS011;2459;42.268;23.112;2022-10-18T15:01:17;3.97;;;2.30;;
4889;SDS011;2459;42.268;23.112;2022-10-18T15:03:44;4.73;;;3.30;;
4889;SDS011;2459;42.268;23.112;2022-10-18T15:06:14;5.63;;;2.97;;
4889;SDS011;2459;42.268;23.112;2022-10-18T15:08:41;5.80;;;2.37;;
4889;SDS011;2459;42.268;23.112;2022-10-18T15:11:09;6.30;;;3.30;;
4889;SDS011;2459;42.268;23.112;2022-10-18T15:13:38;9.70;;;4.50;;
4889;SDS011;2459;42.268;23.112;2022-10-18T15:16:09;16.50;;;5.37;;
4889;SDS011;2459;42.268;23.112;2022-10-18T15:18:40;13.07;;;5.60;;
4889;SDS011;2459;42.268;23.112;2022-10-18T15:21:09;5.87;;;3.77;;
4889;SDS011;2459;42.268;23.112;2022-10-18T15:23:45;16.90;;;3.97;;
4889;SDS011;2459;42.268;23.112;2022-10-18T15:26:13;11.90;;;3.93;;
4889;SDS011;2459;42.268;23.112;2022-10-18T15:28:41;15.80;;;6.20;;
4889;SDS011;2459;42.268;23.112;2022-10-18T15:31:20;15.90;;;8.17;;
4889;SDS011;2459;42.268;23.112;2022-10-18T15:33:48;9.50;;;4.50;;
4889;SDS011;2459;42.268;23.112;2022-10-18T15:36:17;10.10;;;4.00;;
4889;SDS011;2459;42.268;23.112;2022-10-18T15:38:45;14.80;;;6.07;;
4889;SDS011;2459;42.268;23.112;2022-10-18T15:44:04;13.67;;;7.03;;
4889;SDS011;2459;42.268;23.112;2022-10-18T15:46:33;34.43;;;10.20;;